createdAt,value
2022-08-09T00:02:28.969Z,17.10
2022-08-09T00:05:03.349Z,17.14
2022-08-09T00:07:44.440Z,17.17
2022-08-09T00:10:18.073Z,17.19
2022-08-09T00:12:52.330Z,17.21
2022-08-09T00:15:26.435Z,17.20
2022-08-09T00:18:10.595Z,17.17
2022-08-09T00:20:42.411Z,17.17
2022-08-09T00:23:57.320Z,17.18
2022-08-09T00:26:06.953Z,17.16
2022-08-09T00:28:34.462Z,17.15
2022-08-09T00:31:09.194Z,17.17
2022-08-09T00:33:53.282Z,17.17
2022-08-09T00:36:21.077Z,17.18
2022-08-09T00:38:50.701Z,17.17
2022-08-09T00:44:11.019Z,17.13
2022-08-09T00:44:14.425Z,17.09
2022-08-09T00:46:56.327Z,17.07
2022-08-09T00:49:24.669Z,17.09
2022-08-09T00:51:56.433Z,17.04
2022-08-09T00:54:31.280Z,17.02
2022-08-09T00:57:01.894Z,16.99
2022-08-09T00:59:41.389Z,17.00
2022-08-09T01:02:20.207Z,16.99
2022-08-09T01:05:14.242Z,16.99
2022-08-09T01:08:01.015Z,16.99
2022-08-09T01:11:08.650Z,17.00
2022-08-09T01:14:01.856Z,16.97
2022-08-09T01:16:35.378Z,16.99
2022-08-09T01:19:17.008Z,16.87
2022-08-09T01:22:16.673Z,16.86
2022-08-09T01:25:19.015Z,16.87
2022-08-09T01:27:52.746Z,16.87
2022-08-09T01:30:28.492Z,16.87
2022-08-09T01:33:03.314Z,16.90
2022-08-09T01:35:38.319Z,16.89
2022-08-09T01:38:15.005Z,16.85
2022-08-09T01:40:52.422Z,16.85
2022-08-09T01:43:29.897Z,16.84
2022-08-09T01:45:58.306Z,16.85
2022-08-09T01:48:29.629Z,16.86
2022-08-09T01:50:58.658Z,16.81
2022-08-09T01:53:29.296Z,16.78
2022-08-09T01:56:11.001Z,16.78
2022-08-09T01:58:38.808Z,16.81
2022-08-09T02:01:06.471Z,16.81
2022-08-09T02:03:36.505Z,16.77
2022-08-09T02:06:07.020Z,16.78
2022-08-09T02:08:57.002Z,16.78
2022-08-09T02:11:41.969Z,16.76
2022-08-09T02:14:15.968Z,16.77
2022-08-09T02:17:15.434Z,16.74
2022-08-09T02:19:43.564Z,16.70
2022-08-09T02:22:36.134Z,16.69
2022-08-09T02:25:10.054Z,16.68
2022-08-09T02:28:00.332Z,16.65
2022-08-09T02:30:36.889Z,16.63
2022-08-09T02:33:08.034Z,16.58
2022-08-09T02:36:01.029Z,16.52
2022-08-09T02:38:35.665Z,16.49
2022-08-09T02:41:08.558Z,16.52
2022-08-09T02:43:53.553Z,16.51
2022-08-09T02:46:24.685Z,16.52
2022-08-09T02:48:53.920Z,16.53
2022-08-09T02:51:26.651Z,16.55
2022-08-09T02:54:00.405Z,16.52
2022-08-09T02:56:30.466Z,16.55
2022-08-09T02:58:57.356Z,16.54
2022-08-09T03:01:29.638Z,16.58
2022-08-09T03:04:19.358Z,16.56
2022-08-09T03:06:49.006Z,16.51
2022-08-09T03:09:17.653Z,16.52
2022-08-09T03:12:05.471Z,16.54
2022-08-09T03:14:32.991Z,16.52
2022-08-09T03:17:01.542Z,16.53
2022-08-09T03:19:59.064Z,16.53
2022-08-09T03:22:25.699Z,16.53
2022-08-09T03:25:06.578Z,16.54
2022-08-09T03:27:51.899Z,16.56
2022-08-09T03:30:29.706Z,16.55
2022-08-09T03:33:17.992Z,16.51
2022-08-09T03:36:13.142Z,16.50
2022-08-09T03:38:35.482Z,16.47
2022-08-09T03:41:03.999Z,16.47
2022-08-09T03:43:31.607Z,16.47
2022-08-09T03:46:04.342Z,16.48
2022-08-09T03:48:51.820Z,16.50
2022-08-09T03:51:55.980Z,16.50
2022-08-09T03:54:11.086Z,16.49
2022-08-09T03:56:41.336Z,16.52
2022-08-09T03:59:17.034Z,16.54
2022-08-09T04:01:48.873Z,16.50
2022-08-09T04:04:16.559Z,16.51
2022-08-09T04:06:44.109Z,16.50
2022-08-09T04:09:47.743Z,16.50
2022-08-09T04:12:12.199Z,16.50
2022-08-09T04:15:01.780Z,16.49
2022-08-09T04:17:30.094Z,16.50
2022-08-09T04:19:57.934Z,16.48
2022-08-09T04:22:29.606Z,16.43
2022-08-09T04:24:58.488Z,16.40
2022-08-09T04:27:25.679Z,16.43
2022-08-09T04:29:55.674Z,16.44
2022-08-09T04:32:22.419Z,16.44
2022-08-09T04:35:01.360Z,16.45
2022-08-09T04:37:45.036Z,16.48
2022-08-09T04:40:29.125Z,16.49
2022-08-09T04:42:59.906Z,16.50
2022-08-09T04:45:30.499Z,16.54
2022-08-09T04:48:03.118Z,16.55
2022-08-09T04:50:31.682Z,16.47
2022-08-09T04:53:00.696Z,16.51
2022-08-09T04:55:27.838Z,16.56
2022-08-09T04:58:09.644Z,16.60
2022-08-09T05:00:36.579Z,16.64
2022-08-09T05:03:30.020Z,16.65
2022-08-09T05:06:04.466Z,16.66
2022-08-09T05:08:34.959Z,16.61
2022-08-09T05:11:02.783Z,16.63
2022-08-09T05:13:33.095Z,16.63
2022-08-09T05:16:00.731Z,16.66
2022-08-09T05:18:37.771Z,16.70
2022-08-09T05:21:22.868Z,16.78
2022-08-09T05:24:00.125Z,16.82
2022-08-09T05:26:37.413Z,16.84
2022-08-09T05:29:17.074Z,16.89
2022-08-09T05:31:46.403Z,16.92
2022-08-09T05:34:16.459Z,16.99
2022-08-09T05:36:44.275Z,17.05
2022-08-09T05:39:14.353Z,17.09
2022-08-09T05:41:55.263Z,17.14
2022-08-09T05:44:22.065Z,17.18
2022-08-09T05:46:55.645Z,17.21
2022-08-09T05:49:33.842Z,17.21
2022-08-09T05:52:10.087Z,17.25
2022-08-09T05:54:37.042Z,17.27
2022-08-09T05:57:07.141Z,17.26
2022-08-09T05:59:39.524Z,17.31
2022-08-09T06:02:10.027Z,17.30
2022-08-09T06:04:36.862Z,17.33
2022-08-09T06:07:11.546Z,17.34
2022-08-09T06:09:54.625Z,17.38
2022-08-09T06:12:28.641Z,17.41
2022-08-09T06:14:55.295Z,17.44
2022-08-09T06:17:27.861Z,17.49
2022-08-09T06:20:07.977Z,17.56
2022-08-09T06:22:35.319Z,17.60
2022-08-09T06:25:02.138Z,17.63
2022-08-09T06:27:42.879Z,17.65
2022-08-09T06:30:10.742Z,17.70
2022-08-09T06:32:53.364Z,17.74
2022-08-09T06:35:56.468Z,17.77
2022-08-09T06:38:16.329Z,17.79
2022-08-09T06:40:43.368Z,17.82
2022-08-09T06:43:10.572Z,17.83
2022-08-09T06:46:05.537Z,17.87
2022-08-09T06:48:26.157Z,17.92
2022-08-09T06:50:59.037Z,17.95
2022-08-09T06:53:26.571Z,17.99
2022-08-09T06:55:53.409Z,18.03
2022-08-09T06:58:40.554Z,18.09
2022-08-09T07:01:08.040Z,18.11
2022-08-09T07:03:39.777Z,18.17
2022-08-09T07:06:19.797Z,18.23
2022-08-09T07:08:46.710Z,18.27
2022-08-09T07:11:23.339Z,18.34
2022-08-09T07:14:05.659Z,18.38
2022-08-09T07:16:42.347Z,18.43
2022-08-09T07:19:23.010Z,18.44
2022-08-09T07:21:57.148Z,18.47
2022-08-09T07:24:32.484Z,18.48
2022-08-09T07:27:23.933Z,18.53
2022-08-09T07:29:57.213Z,18.60
2022-08-09T07:32:32.932Z,18.63
2022-08-09T07:35:02.756Z,18.66
2022-08-09T07:37:44.139Z,18.69
2022-08-09T07:40:19.128Z,18.74
2022-08-09T07:43:16.793Z,18.80
2022-08-09T07:45:43.732Z,18.83
2022-08-09T07:48:28.393Z,18.83
2022-08-09T07:51:09.846Z,18.84
2022-08-09T07:54:05.367Z,18.88
2022-08-09T07:56:34.267Z,18.92
2022-08-09T07:59:01.218Z,18.92
2022-08-09T08:01:33.050Z,18.93
2022-08-09T08:04:01.744Z,18.90
2022-08-09T08:06:32.210Z,18.84
2022-08-09T08:09:04.508Z,18.83
2022-08-09T08:12:11.352Z,18.86
2022-08-09T08:14:18.467Z,18.92
2022-08-09T08:16:57.754Z,18.93
2022-08-09T08:19:33.847Z,19.03
2022-08-09T08:22:01.704Z,19.03
2022-08-09T08:24:35.156Z,19.05
2022-08-09T08:27:16.531Z,19.10
2022-08-09T08:29:45.242Z,19.14
2022-08-09T08:32:24.409Z,19.22
2022-08-09T08:34:58.868Z,19.33
2022-08-09T08:37:41.548Z,19.39
2022-08-09T08:40:14.768Z,19.44
2022-08-09T08:42:47.349Z,19.51
2022-08-09T08:45:16.683Z,19.49
2022-08-09T08:47:45.229Z,19.42
2022-08-09T08:50:15.650Z,19.40
2022-08-09T08:52:57.708Z,19.43
2022-08-09T08:55:26.852Z,19.52
2022-08-09T08:57:57.126Z,19.57
2022-08-09T09:00:27.558Z,19.66
2022-08-09T09:03:08.812Z,19.67
2022-08-09T09:05:59.907Z,19.68
2022-08-09T09:08:37.806Z,19.77
2022-08-09T09:11:08.579Z,19.80
2022-08-09T09:13:55.848Z,19.88
2022-08-09T09:16:34.508Z,19.94
2022-08-09T09:22:03.838Z,20.06
2022-08-09T09:24:34.901Z,20.12
2022-08-09T09:27:03.215Z,20.12
2022-08-09T09:29:46.025Z,20.11
2022-08-09T09:32:34.686Z,20.20
2022-08-09T09:35:08.961Z,20.32
2022-08-09T09:37:40.695Z,20.43
2022-08-09T09:40:08.657Z,20.53
2022-08-09T09:42:36.315Z,20.63
2022-08-09T09:45:08.301Z,20.74
2022-08-09T09:47:42.120Z,20.78
2022-08-09T09:50:17.299Z,20.79
2022-08-09T09:52:56.108Z,20.69
2022-08-09T09:55:31.334Z,20.68
2022-08-09T09:58:15.715Z,20.73
2022-08-09T10:00:54.171Z,20.76
2022-08-09T10:03:57.565Z,20.70
2022-08-09T10:06:51.970Z,20.59
2022-08-09T10:09:23.549Z,20.55
2022-08-09T10:12:14.455Z,20.61
2022-08-09T10:14:51.481Z,20.68
2022-08-09T10:17:50.197Z,20.76
2022-08-09T10:20:31.804Z,20.84
2022-08-09T10:23:17.223Z,20.88
2022-08-09T10:26:06.379Z,20.99
2022-08-09T10:28:34.642Z,21.06
2022-08-09T10:34:10.736Z,21.14
2022-08-09T10:36:36.794Z,21.14
2022-08-09T10:39:05.977Z,21.14
2022-08-09T10:41:42.909Z,21.14
2022-08-09T10:44:10.142Z,21.08
2022-08-09T10:47:00.838Z,21.05
2022-08-09T10:49:50.346Z,21.04
2022-08-09T10:52:29.534Z,21.09
2022-08-09T10:55:02.592Z,21.14
2022-08-09T10:57:37.673Z,21.20
2022-08-09T11:01:11.097Z,21.18
2022-08-09T11:03:50.329Z,21.25
2022-08-09T11:06:15.778Z,21.30
2022-08-09T11:08:47.777Z,21.32
2022-08-09T11:11:19.014Z,21.41
2022-08-09T11:13:50.085Z,21.42
2022-08-09T11:16:36.277Z,21.35
2022-08-09T11:19:10.151Z,21.33
2022-08-09T11:21:57.166Z,21.29
2022-08-09T11:24:57.894Z,21.33
2022-08-09T11:28:03.535Z,21.26
2022-08-09T11:30:33.771Z,21.39
2022-08-09T11:33:19.204Z,21.50
2022-08-09T11:35:57.226Z,21.53
2022-08-09T11:38:34.063Z,21.60
2022-08-09T11:41:18.604Z,21.71
2022-08-09T11:43:52.788Z,21.76
2022-08-09T11:46:32.843Z,21.78
2022-08-09T11:49:05.369Z,21.76
2022-08-09T11:53:00.492Z,21.64
2022-08-09T11:55:37.471Z,21.52
2022-08-09T11:58:14.408Z,21.57
2022-08-09T12:00:52.852Z,21.47
2022-08-09T12:03:55.063Z,21.43
2022-08-09T12:06:13.270Z,21.48
2022-08-09T12:08:47.277Z,21.56
2022-08-09T12:11:17.180Z,21.51
2022-08-09T12:14:07.803Z,21.46
2022-08-09T12:16:42.877Z,21.41
2022-08-09T12:19:13.100Z,21.35
2022-08-09T12:21:48.568Z,21.34
2022-08-09T12:24:26.281Z,21.39
2022-08-09T12:29:14.708Z,21.34
2022-08-09T12:30:01.427Z,21.31
2022-08-09T12:32:40.788Z,21.37
2022-08-09T12:35:10.789Z,21.39
2022-08-09T12:37:50.213Z,21.34
2022-08-09T12:40:18.960Z,21.32
2022-08-09T12:42:50.329Z,21.35
2022-08-09T12:45:33.736Z,21.43
2022-08-09T12:48:03.140Z,21.55
2022-08-09T12:50:29.935Z,21.62
2022-08-09T12:53:17.498Z,21.57
2022-08-09T12:56:14.985Z,21.49
2022-08-09T12:58:32.685Z,21.49
2022-08-09T13:01:05.059Z,21.47
2022-08-09T13:03:56.896Z,21.43
2022-08-09T13:06:24.221Z,21.42
2022-08-09T13:09:06.074Z,21.37
2022-08-09T13:11:44.111Z,21.40
2022-08-09T13:14:43.665Z,21.43
2022-08-09T13:17:01.272Z,21.47
2022-08-09T13:20:11.303Z,21.52
2022-08-09T13:22:38.124Z,21.57
2022-08-09T13:25:11.878Z,21.55
2022-08-09T13:27:55.416Z,21.45
2022-08-09T13:30:51.390Z,21.39
2022-08-09T13:33:16.905Z,21.31
2022-08-09T13:36:39.107Z,21.31
2022-08-09T13:38:57.468Z,21.29
2022-08-09T13:41:58.937Z,21.37
2022-08-09T13:44:09.395Z,21.38
2022-08-09T13:47:16.643Z,21.41
2022-08-09T13:49:33.963Z,21.37
2022-08-09T13:52:09.205Z,21.37
2022-08-09T13:54:36.500Z,21.43
2022-08-09T13:57:35.104Z,21.51
2022-08-09T13:59:58.201Z,21.58
2022-08-09T14:02:26.134Z,21.63
2022-08-09T14:04:59.496Z,21.63
2022-08-09T14:07:40.888Z,21.61
2022-08-09T14:10:17.172Z,21.61
2022-08-09T14:12:44.448Z,21.59
2022-08-09T14:16:06.968Z,21.63
2022-08-09T14:18:18.584Z,21.64
2022-08-09T14:20:46.772Z,21.63
2022-08-09T14:23:20.051Z,21.67
2022-08-09T14:25:51.382Z,21.71
2022-08-09T14:28:18.395Z,21.70
2022-08-09T14:30:47.539Z,21.68
2022-08-09T14:33:21.010Z,21.70
2022-08-09T14:35:52.653Z,21.73
2022-08-09T14:38:20.001Z,21.78
2022-08-09T14:41:04.558Z,21.80
2022-08-09T14:43:46.972Z,21.68
2022-08-09T14:46:58.976Z,21.67
2022-08-09T14:49:02.750Z,21.72
2022-08-09T14:51:30.313Z,21.75
2022-08-09T14:54:09.528Z,21.70
2022-08-09T14:56:36.170Z,21.71
2022-08-09T14:59:23.499Z,21.70
2022-08-09T15:01:50.528Z,21.66
2022-08-09T15:04:17.121Z,21.56
2022-08-09T15:06:49.696Z,21.57
2022-08-09T15:09:16.853Z,21.59
2022-08-09T15:12:04.487Z,21.60
2022-08-09T15:14:33.877Z,21.56
2022-08-09T15:17:04.819Z,21.47
2022-08-09T15:19:36.073Z,21.45
2022-08-09T15:22:03.095Z,21.44
2022-08-09T15:24:29.821Z,21.46
2022-08-09T15:26:56.651Z,21.42
2022-08-09T15:30:55.983Z,21.44
2022-08-09T15:32:29.389Z,21.42
2022-08-09T15:34:59.917Z,21.38
2022-08-09T15:37:57.026Z,21.35
2022-08-09T15:40:25.351Z,21.33
2022-08-09T15:42:58.554Z,21.34
2022-08-09T15:45:29.381Z,21.36
2022-08-09T15:48:05.147Z,21.38
2022-08-09T15:50:39.341Z,21.41
2022-08-09T15:53:18.702Z,21.43
2022-08-09T15:56:20.960Z,21.44
2022-08-09T15:58:46.471Z,21.48
2022-08-09T16:01:13.306Z,21.51
2022-08-09T16:03:41.654Z,21.54
2022-08-09T16:06:32.348Z,21.58
2022-08-09T16:08:59.172Z,21.60
2022-08-09T16:11:30.866Z,21.54
2022-08-09T16:14:03.694Z,21.52
2022-08-09T16:16:36.846Z,21.55
2022-08-09T16:19:08.745Z,21.64
2022-08-09T16:21:40.208Z,21.74
2022-08-09T16:24:19.955Z,21.79
2022-08-09T16:26:56.755Z,21.87
2022-08-09T16:29:36.708Z,21.96
2022-08-09T16:32:17.780Z,21.96
2022-08-09T16:34:56.626Z,21.95
2022-08-09T16:37:50.639Z,22.00
2022-08-09T16:40:13.559Z,22.04
2022-08-09T16:42:44.858Z,22.07
2022-08-09T16:45:12.532Z,22.14
2022-08-09T16:48:39.218Z,22.13
2022-08-09T16:50:33.966Z,22.13
2022-08-09T16:53:02.329Z,22.12
2022-08-09T16:55:44.133Z,22.14
2022-08-09T16:58:16.955Z,22.02
2022-08-09T17:00:46.632Z,21.97
2022-08-09T17:03:22.662Z,21.97
2022-08-09T17:06:08.307Z,21.95
2022-08-09T17:08:59.046Z,21.93
2022-08-09T17:11:41.302Z,21.92
2022-08-09T17:14:25.326Z,21.85
2022-08-09T17:16:59.758Z,21.79
2022-08-09T17:19:28.124Z,21.73
2022-08-09T17:22:14.489Z,21.57
2022-08-09T17:24:47.956Z,21.52
2022-08-09T17:27:21.780Z,21.42
2022-08-09T17:29:48.468Z,21.37
2022-08-09T17:32:20.064Z,21.24
2022-08-09T17:35:04.379Z,21.18
2022-08-09T17:38:10.213Z,21.09
2022-08-09T17:40:21.786Z,21.01
2022-08-09T17:42:59.189Z,20.90
2022-08-09T17:46:01.953Z,20.85
2022-08-09T17:48:17.401Z,20.75
2022-08-09T17:50:48.596Z,20.69
2022-08-09T17:53:23.321Z,20.62
2022-08-09T17:55:54.177Z,20.48
2022-08-09T17:58:21.939Z,20.36
2022-08-09T18:00:55.022Z,20.25
2022-08-09T18:03:24.548Z,20.15
2022-08-09T18:05:53.208Z,20.12
2022-08-09T18:08:22.184Z,20.08
2022-08-09T18:11:00.989Z,20.00
2022-08-09T18:13:40.020Z,19.94
2022-08-09T18:16:30.264Z,19.83
2022-08-09T18:18:59.301Z,19.68
2022-08-09T18:21:31.798Z,19.56
2022-08-09T18:24:12.368Z,19.46
2022-08-09T18:26:46.375Z,19.43
2022-08-09T18:30:38.744Z,19.33
2022-08-09T18:32:03.895Z,19.23
2022-08-09T18:34:35.205Z,19.14
2022-08-09T18:37:10.361Z,19.01
2022-08-09T18:39:57.884Z,18.84
2022-08-09T18:42:29.344Z,18.73
2022-08-09T18:44:56.340Z,18.64
2022-08-09T18:47:24.316Z,18.52
2022-08-09T18:49:54.540Z,18.42
2022-08-09T18:52:34.724Z,18.34
2022-08-09T18:55:02.766Z,18.22
2022-08-09T18:57:42.600Z,18.14
2022-08-09T19:00:11.661Z,18.02
2022-08-09T19:02:43.521Z,17.97
2022-08-09T19:05:19.637Z,17.91
2022-08-09T19:08:04.319Z,17.85
2022-08-09T19:10:37.871Z,17.80
2022-08-09T19:13:19.279Z,17.70
2022-08-09T19:15:51.296Z,17.53
2022-08-09T19:18:33.268Z,17.43
2022-08-09T19:21:09.929Z,17.39
2022-08-09T19:24:33.205Z,17.38
2022-08-09T19:26:31.141Z,17.32
2022-08-09T19:29:03.061Z,17.21
2022-08-09T19:31:45.039Z,17.07
2022-08-09T19:34:22.319Z,17.01
2022-08-09T19:36:53.076Z,16.93
2022-08-09T19:39:29.127Z,16.86
2022-08-09T19:42:08.419Z,16.77
2022-08-09T19:44:38.156Z,16.73
2022-08-09T19:47:07.824Z,16.73
2022-08-09T19:50:09.569Z,16.74
2022-08-09T19:52:26.204Z,16.71
2022-08-09T19:54:52.806Z,16.58
2022-08-09T19:57:19.550Z,16.52
2022-08-09T19:59:59.125Z,16.46
2022-08-09T20:04:12.611Z,16.38
2022-08-09T20:05:20.550Z,16.34
2022-08-09T20:08:00.255Z,16.28
2022-08-09T20:10:34.428Z,16.23
2022-08-09T20:13:04.970Z,16.19
2022-08-09T20:16:34.713Z,16.10
2022-08-09T20:18:19.725Z,16.05
2022-08-09T20:20:51.086Z,16.02
2022-08-09T20:23:19.583Z,16.03
2022-08-09T20:25:52.253Z,15.99
2022-08-09T20:28:24.505Z,15.96
2022-08-09T20:30:54.878Z,15.90
2022-08-09T20:33:21.859Z,15.78
2022-08-09T20:35:51.612Z,15.71
2022-08-09T20:38:27.536Z,15.68
2022-08-09T20:40:56.706Z,15.57
2022-08-09T20:43:25.354Z,15.56
2022-08-09T20:45:57.546Z,15.50
2022-08-09T20:48:31.240Z,15.43
2022-08-09T20:50:58.914Z,15.40
2022-08-09T20:53:36.371Z,15.35
2022-08-09T20:56:08.763Z,15.40
2022-08-09T20:58:36.070Z,15.42
2022-08-09T21:01:33.161Z,15.35
2022-08-09T21:05:48.460Z,15.33
2022-08-09T21:06:41.515Z,15.25
2022-08-09T21:09:13.839Z,15.19
2022-08-09T21:14:30.917Z,15.12
2022-08-09T21:17:00.049Z,15.08
2022-08-09T21:20:18.051Z,14.96
2022-08-09T21:22:35.729Z,14.90
2022-08-09T21:25:18.562Z,14.88
2022-08-09T21:27:52.329Z,14.91
2022-08-09T21:30:20.059Z,14.88
2022-08-09T21:32:50.450Z,14.83
2022-08-09T21:35:18.037Z,14.76
2022-08-09T21:37:59.880Z,14.68
2022-08-09T21:40:30.616Z,14.64
2022-08-09T21:43:04.216Z,14.60
2022-08-09T21:45:32.897Z,14.55
2022-08-09T21:48:06.991Z,14.48
2022-08-09T21:50:38.437Z,14.42
2022-08-09T21:53:15.571Z,14.34
2022-08-09T21:55:46.873Z,14.33
2022-08-09T21:58:13.548Z,14.31
2022-08-09T22:00:40.757Z,14.26
2022-08-09T22:03:19.370Z,14.26
2022-08-09T22:05:52.316Z,14.21
2022-08-09T22:08:19.683Z,14.18
2022-08-09T22:11:00.839Z,14.17
2022-08-09T22:13:38.573Z,14.09
2022-08-09T22:16:10.681Z,14.03
2022-08-09T22:18:52.204Z,13.95
2022-08-09T22:21:27.439Z,13.87
2022-08-09T22:24:16.933Z,13.91
2022-08-09T22:26:47.804Z,13.94
2022-08-09T22:29:18.513Z,13.90
2022-08-09T22:31:57.049Z,13.85
2022-08-09T22:34:26.448Z,13.83
2022-08-09T22:36:57.794Z,13.76
2022-08-09T22:39:57.299Z,13.70
2022-08-09T22:42:20.815Z,13.63
2022-08-09T22:44:48.974Z,13.60
2022-08-09T22:48:33.916Z,13.56
2022-08-09T22:50:13.524Z,13.51
2022-08-09T22:52:40.072Z,13.53
2022-08-09T22:55:08.372Z,13.49
2022-08-09T22:58:00.120Z,13.39
2022-08-09T23:00:29.555Z,13.34
2022-08-09T23:02:56.545Z,13.28
2022-08-09T23:05:25.150Z,13.31
2022-08-09T23:08:29.125Z,13.23
2022-08-09T23:10:56.426Z,13.27
2022-08-09T23:13:22.995Z,13.20
2022-08-09T23:16:02.980Z,13.16
2022-08-09T23:18:30.030Z,13.09
2022-08-09T23:20:56.634Z,13.07
2022-08-09T23:23:23.217Z,13.06
2022-08-09T23:25:49.747Z,13.06
2022-08-09T23:28:16.368Z,13.04
2022-08-09T23:30:50.900Z,13.00
2022-08-09T23:33:19.450Z,12.99
2022-08-09T23:36:06.618Z,12.95
2022-08-09T23:38:32.502Z,12.91
2022-08-09T23:40:59.016Z,12.87
2022-08-09T23:43:25.548Z,12.79
2022-08-09T23:45:52.083Z,12.79
2022-08-09T23:48:19.615Z,12.75
2022-08-09T23:50:46.231Z,12.75
2022-08-09T23:53:12.943Z,12.72
2022-08-09T23:55:46.198Z,12.71
2022-08-09T23:58:25.997Z,12.65
